createdAt,value
2018-12-25T00:01:25.860Z,10.17
2018-12-25T00:03:55.092Z,9.80
2018-12-25T00:06:24.330Z,9.30
2018-12-25T00:08:53.869Z,9.80
2018-12-25T00:11:23.354Z,9.27
2018-12-25T00:13:52.857Z,8.67
2018-12-25T00:16:22.793Z,9.50
2018-12-25T00:18:51.947Z,9.90
2018-12-25T00:21:21.141Z,9.53
2018-12-25T00:23:51.801Z,10.47
2018-12-25T00:26:21.724Z,9.73
2018-12-25T00:28:51.877Z,9.53
2018-12-25T00:31:21.156Z,10.50
2018-12-25T00:33:50.503Z,9.57
2018-12-25T00:36:20.369Z,11.05
2018-12-25T00:38:50.198Z,10.77
2018-12-25T00:41:19.382Z,10.13
2018-12-25T00:43:48.572Z,10.03
2018-12-25T00:46:18.081Z,10.72
2018-12-25T00:48:47.616Z,9.43
2018-12-25T00:51:17.371Z,11.37
2018-12-25T00:53:46.578Z,11.43
2018-12-25T00:56:15.735Z,11.17
2018-12-25T00:58:44.940Z,11.30
2018-12-25T01:01:14.495Z,9.93
2018-12-25T01:03:44.041Z,11.63
2018-12-25T01:06:13.550Z,10.80
2018-12-25T01:08:42.785Z,10.63
2018-12-25T01:11:12.016Z,11.90
2018-12-25T01:13:41.436Z,11.63
2018-12-25T01:16:11.334Z,11.63
2018-12-25T01:18:40.528Z,11.03
2018-12-25T01:21:10.560Z,11.93
2018-12-25T01:23:40.233Z,10.93
2018-12-25T01:26:09.412Z,11.83
2018-12-25T01:28:38.724Z,12.03
2018-12-25T01:31:07.959Z,12.53
2018-12-25T01:33:37.889Z,12.93
2018-12-25T01:36:07.393Z,12.57
2018-12-25T01:38:36.632Z,12.60
2018-12-25T01:41:07.199Z,12.53
2018-12-25T01:43:36.433Z,11.80
2018-12-25T01:46:05.939Z,12.93
2018-12-25T01:48:35.160Z,12.77
2018-12-25T01:51:04.838Z,12.50
2018-12-25T01:53:36.367Z,12.73
2018-12-25T01:56:05.900Z,11.67
2018-12-25T01:58:35.113Z,12.83
2018-12-25T02:01:04.332Z,12.40
2018-12-25T02:03:33.942Z,12.40
2018-12-25T02:06:03.120Z,12.63
2018-12-25T02:08:32.367Z,12.60
2018-12-25T02:11:02.134Z,12.33
2018-12-25T02:13:31.353Z,12.80
2018-12-25T02:16:00.564Z,10.73
2018-12-25T02:18:30.117Z,13.40
2018-12-25T02:21:00.290Z,13.53
2018-12-25T02:23:30.052Z,12.57
2018-12-25T02:25:59.360Z,12.33
2018-12-25T02:28:28.821Z,12.17
2018-12-25T02:30:58.023Z,12.20
2018-12-25T02:33:27.198Z,12.00
2018-12-25T02:35:56.383Z,12.03
2018-12-25T02:38:27.302Z,12.53
2018-12-25T02:40:56.474Z,11.70
2018-12-25T02:43:26.260Z,12.40
2018-12-25T02:45:55.870Z,12.80
2018-12-25T02:48:25.425Z,12.00
2018-12-25T02:50:56.692Z,13.73
2018-12-25T02:53:26.589Z,13.17
2018-12-25T02:55:55.835Z,12.55
2018-12-25T02:58:25.458Z,13.43
2018-12-25T03:00:55.011Z,12.40
2018-12-25T03:03:24.176Z,13.30
2018-12-25T03:05:53.736Z,12.60
2018-12-25T03:08:22.935Z,13.33
2018-12-25T03:10:52.101Z,13.30
2018-12-25T03:13:22.449Z,12.37
2018-12-25T03:15:52.241Z,12.10
2018-12-25T03:18:21.404Z,12.73
2018-12-25T03:20:50.889Z,12.40
2018-12-25T03:23:20.466Z,12.03
2018-12-25T03:25:49.665Z,12.80
2018-12-25T03:28:19.353Z,13.10
2018-12-25T03:30:49.636Z,12.90
2018-12-25T03:33:18.823Z,11.10
2018-12-25T03:35:48.417Z,13.03
2018-12-25T03:38:18.316Z,12.73
2018-12-25T03:40:47.818Z,12.67
2018-12-25T03:43:17.002Z,11.57
2018-12-25T03:45:48.063Z,12.00
2018-12-25T03:48:17.479Z,11.20
2018-12-25T03:50:46.794Z,11.80
2018-12-25T03:53:15.957Z,11.27
2018-12-25T03:55:45.219Z,10.90
2018-12-25T03:58:14.813Z,10.37
2018-12-25T04:00:44.005Z,10.20
2018-12-25T04:03:13.716Z,9.70
2018-12-25T04:05:42.887Z,9.43
2018-12-25T04:08:12.044Z,10.90
2018-12-25T04:10:41.582Z,10.10
2018-12-25T04:13:10.821Z,10.10
2018-12-25T04:15:40.202Z,7.70
2018-12-25T04:18:09.687Z,8.27
2018-12-25T04:20:38.848Z,9.20
2018-12-25T04:23:08.501Z,8.43
2018-12-25T04:25:40.473Z,7.57
2018-12-25T04:28:09.610Z,7.57
2018-12-25T04:30:39.128Z,7.43
2018-12-25T04:33:08.290Z,8.00
2018-12-25T04:35:38.085Z,7.83
2018-12-25T04:38:07.589Z,6.77
2018-12-25T04:40:37.899Z,7.55
2018-12-25T04:43:07.130Z,7.10
2018-12-25T04:45:36.635Z,6.70
2018-12-25T04:48:05.857Z,6.40
2018-12-25T04:50:35.429Z,5.80
2018-12-25T04:53:04.934Z,6.57
2018-12-25T04:55:34.108Z,6.77
2018-12-25T04:58:03.270Z,6.33
2018-12-25T05:00:32.767Z,5.70
2018-12-25T05:03:02.209Z,5.00
2018-12-25T05:05:31.749Z,5.53
2018-12-25T05:08:01.281Z,5.60
2018-12-25T05:10:30.827Z,5.30
2018-12-25T05:13:00.405Z,4.83
2018-12-25T05:15:29.559Z,5.50
2018-12-25T05:17:59.099Z,4.57
2018-12-25T05:20:28.273Z,4.80
2018-12-25T05:22:58.907Z,5.03
2018-12-25T05:25:28.452Z,4.67
2018-12-25T05:27:57.618Z,4.33
2018-12-25T05:30:27.286Z,4.70
2018-12-25T05:32:56.586Z,4.03
2018-12-25T05:35:26.115Z,4.90
2018-12-25T05:37:56.071Z,3.60
2018-12-25T05:40:25.510Z,4.60
2018-12-25T05:42:54.668Z,4.00
2018-12-25T05:45:24.209Z,4.10
2018-12-25T05:47:53.689Z,4.20
2018-12-25T05:50:24.568Z,3.33
2018-12-25T05:52:53.702Z,4.90
2018-12-25T05:55:23.237Z,3.77
2018-12-25T05:57:52.794Z,3.30
2018-12-25T06:00:22.330Z,3.27
2018-12-25T06:02:52.689Z,3.83
2018-12-25T06:05:21.885Z,3.37
2018-12-25T06:07:51.058Z,3.40
2018-12-25T06:10:20.245Z,3.70
2018-12-25T06:12:49.763Z,3.77
2018-12-25T06:15:19.067Z,3.40
2018-12-25T06:17:48.272Z,3.93
2018-12-25T06:20:17.477Z,3.40
2018-12-25T06:22:47.142Z,3.23
2018-12-25T06:25:17.221Z,3.70
2018-12-25T06:27:46.819Z,3.30
2018-12-25T06:30:16.029Z,3.63
2018-12-25T06:32:45.232Z,3.90
2018-12-25T06:35:14.437Z,3.80
2018-12-25T06:37:44.710Z,3.50
2018-12-25T06:40:13.865Z,3.03
2018-12-25T06:42:43.447Z,3.60
2018-12-25T06:45:13.299Z,3.23
2018-12-25T06:47:42.533Z,3.73
2018-12-25T06:50:12.014Z,3.20
2018-12-25T06:52:41.214Z,4.00
2018-12-25T06:55:13.209Z,3.50
2018-12-25T06:57:42.846Z,4.43
2018-12-25T07:00:12.019Z,3.30
2018-12-25T07:02:41.275Z,4.20
2018-12-25T07:05:10.872Z,3.57
2018-12-25T07:07:40.433Z,4.10
2018-12-25T07:10:09.967Z,3.43
2018-12-25T07:12:39.309Z,2.93
2018-12-25T07:15:11.569Z,3.20
2018-12-25T07:17:42.035Z,3.37
2018-12-25T07:20:11.764Z,3.53
2018-12-25T07:22:42.118Z,3.30
2018-12-25T07:25:11.305Z,3.33
2018-12-25T07:27:40.876Z,3.37
2018-12-25T07:30:10.388Z,3.97
2018-12-25T07:32:39.943Z,2.90
2018-12-25T07:35:09.776Z,4.35
2018-12-25T07:37:38.927Z,3.23
2018-12-25T07:40:09.643Z,3.35
2018-12-25T07:42:38.805Z,3.30
2018-12-25T07:45:10.643Z,3.60
2018-12-25T07:47:39.836Z,3.53
2018-12-25T07:50:09.146Z,3.77
2018-12-25T07:52:38.705Z,3.70
2018-12-25T07:55:08.771Z,3.47
2018-12-25T07:57:39.038Z,3.37
2018-12-25T08:00:08.724Z,3.47
2018-12-25T08:02:40.207Z,3.73
2018-12-25T08:05:09.405Z,2.93
2018-12-25T08:07:39.581Z,3.00
2018-12-25T08:10:09.035Z,2.90
2018-12-25T08:12:38.542Z,3.30
2018-12-25T08:15:08.768Z,3.17
2018-12-25T08:17:37.981Z,3.13
2018-12-25T08:20:07.599Z,3.13
2018-12-25T08:22:36.949Z,3.40
2018-12-25T08:25:06.288Z,4.80
2018-12-25T08:27:35.422Z,3.23
2018-12-25T08:30:04.739Z,2.70
2018-12-25T08:32:33.952Z,3.43
2018-12-25T08:35:03.252Z,2.57
2018-12-25T08:37:32.425Z,2.80
2018-12-25T08:40:01.561Z,2.90
2018-12-25T08:42:30.760Z,3.70
2018-12-25T08:45:00.604Z,3.17
2018-12-25T08:47:30.508Z,2.50
2018-12-25T08:49:59.665Z,2.70
2018-12-25T08:52:29.214Z,2.87
2018-12-25T08:54:58.387Z,3.00
2018-12-25T08:57:30.615Z,3.10
2018-12-25T09:00:00.632Z,3.47
2018-12-25T09:02:29.831Z,2.93
2018-12-25T09:04:59.027Z,3.30
2018-12-25T09:07:28.626Z,3.20
2018-12-25T09:10:00.644Z,2.73
2018-12-25T09:12:30.149Z,2.80
2018-12-25T09:14:59.362Z,4.13
2018-12-25T09:17:30.318Z,3.57
2018-12-25T09:19:59.820Z,3.77
2018-12-25T09:22:29.320Z,3.77
2018-12-25T09:24:58.832Z,3.67
2018-12-25T09:27:28.567Z,4.10
2018-12-25T09:29:58.202Z,3.70
2018-12-25T09:32:27.751Z,2.93
2018-12-25T09:34:57.318Z,4.17
2018-12-25T09:37:26.480Z,3.60
2018-12-25T09:39:57.076Z,2.80
2018-12-25T09:42:26.602Z,3.20
2018-12-25T09:44:56.145Z,2.97
2018-12-25T09:47:25.318Z,2.77
2018-12-25T09:49:54.497Z,2.73
2018-12-25T09:52:24.046Z,3.20
2018-12-25T09:54:53.684Z,3.00
2018-12-25T09:57:22.837Z,2.83
2018-12-25T09:59:52.434Z,2.40
2018-12-25T10:02:21.976Z,2.27
2018-12-25T10:04:51.582Z,2.60
2018-12-25T10:07:20.812Z,3.10
2018-12-25T10:09:49.990Z,3.03
2018-12-25T10:12:19.246Z,2.47
2018-12-25T10:14:48.759Z,3.17
2018-12-25T10:17:18.378Z,3.00
2018-12-25T10:19:47.581Z,3.47
2018-12-25T10:22:16.734Z,3.03
2018-12-25T10:24:46.628Z,3.13
2018-12-25T10:27:16.203Z,3.60
2018-12-25T10:29:45.634Z,4.30
2018-12-25T10:32:14.889Z,3.67
2018-12-25T10:34:44.095Z,4.40
2018-12-25T10:37:13.276Z,4.07
2018-12-25T10:39:42.448Z,4.23
2018-12-25T10:42:11.661Z,4.63
2018-12-25T10:44:41.550Z,5.00
2018-12-25T10:47:10.756Z,4.90
2018-12-25T10:49:40.140Z,4.67
2018-12-25T10:52:11.788Z,5.60
2018-12-25T10:54:40.510Z,6.07
2018-12-25T10:57:09.672Z,4.60
2018-12-25T10:59:40.200Z,7.20
2018-12-25T11:02:09.825Z,5.73
2018-12-25T11:04:39.517Z,5.70
2018-12-25T11:07:09.182Z,5.72
2018-12-25T11:09:38.348Z,6.70
2018-12-25T11:12:07.652Z,5.70
2018-12-25T11:14:37.523Z,5.80
2018-12-25T11:17:08.189Z,7.35
2018-12-25T11:19:37.354Z,5.97
2018-12-25T11:22:06.531Z,6.50
2018-12-25T11:24:35.758Z,6.13
2018-12-25T11:27:05.258Z,6.40
2018-12-25T11:29:34.767Z,5.80
2018-12-25T11:32:08.123Z,7.37
2018-12-25T11:34:37.795Z,6.50
2018-12-25T11:37:06.977Z,6.50
2018-12-25T11:39:36.503Z,6.13
2018-12-25T11:42:05.706Z,6.93
2018-12-25T11:44:35.205Z,6.23
2018-12-25T11:47:04.749Z,6.80
2018-12-25T11:49:34.356Z,6.20
2018-12-25T11:52:03.949Z,6.13
2018-12-25T11:54:33.217Z,6.27
2018-12-25T11:57:02.412Z,5.90
2018-12-25T11:59:32.037Z,5.50
2018-12-25T12:02:01.935Z,6.00
2018-12-25T12:04:31.125Z,5.47
2018-12-25T12:07:00.642Z,6.43
2018-12-25T12:09:30.589Z,5.90
2018-12-25T12:12:00.059Z,5.53
2018-12-25T12:14:29.245Z,6.00
2018-12-25T12:16:58.791Z,6.73
2018-12-25T12:19:28.378Z,5.80
2018-12-25T12:21:59.103Z,6.80
2018-12-25T12:24:28.302Z,6.63
2018-12-25T12:26:59.216Z,6.07
2018-12-25T12:29:31.051Z,6.70
2018-12-25T12:32:00.227Z,5.90
2018-12-25T12:34:29.585Z,5.97
2018-12-25T12:36:58.754Z,7.03
2018-12-25T12:39:28.224Z,5.60
2018-12-25T12:41:57.787Z,5.50
2018-12-25T12:44:26.954Z,6.60
2018-12-25T12:46:56.150Z,5.63
2018-12-25T12:49:25.627Z,6.30
2018-12-25T12:51:55.257Z,6.00
2018-12-25T12:54:24.748Z,6.27
2018-12-25T12:56:55.621Z,6.23
2018-12-25T12:59:25.371Z,6.50
2018-12-25T13:01:54.913Z,7.17
2018-12-25T13:04:24.403Z,6.17
2018-12-25T13:06:53.597Z,5.97
2018-12-25T13:09:23.054Z,6.50
2018-12-25T13:11:52.486Z,5.60
2018-12-25T13:14:21.654Z,5.63
2018-12-25T13:16:51.196Z,6.57
2018-12-25T13:19:21.465Z,5.57
2018-12-25T13:21:50.658Z,6.30
2018-12-25T13:24:19.865Z,6.37
2018-12-25T13:26:49.637Z,6.30
2018-12-25T13:29:18.795Z,6.67
2018-12-25T13:31:48.083Z,7.33
2018-12-25T13:34:17.309Z,6.07
2018-12-25T13:36:46.682Z,6.73
2018-12-25T13:39:16.336Z,6.87
2018-12-25T13:41:45.870Z,6.17
2018-12-25T13:44:15.382Z,6.97
2018-12-25T13:46:51.614Z,6.53
2018-12-25T13:49:16.250Z,7.77
2018-12-25T13:51:45.466Z,6.40
2018-12-25T13:54:17.823Z,8.00
2018-12-25T13:56:47.004Z,7.73
2018-12-25T13:59:17.375Z,7.93
2018-12-25T14:01:47.583Z,7.40
2018-12-25T14:04:16.887Z,7.07
2018-12-25T14:06:46.369Z,7.30
2018-12-25T14:09:15.914Z,8.00
2018-12-25T14:11:48.081Z,8.80
2018-12-25T14:14:17.230Z,7.97
2018-12-25T14:16:46.437Z,8.30
2018-12-25T14:19:15.684Z,9.50
2018-12-25T14:21:44.830Z,7.90
2018-12-25T14:24:14.047Z,8.70
2018-12-25T14:26:45.293Z,9.70
2018-12-25T14:29:14.774Z,8.73
2018-12-25T14:31:44.391Z,8.40
2018-12-25T14:34:14.011Z,8.60
2018-12-25T14:36:43.218Z,8.43
2018-12-25T14:39:12.380Z,9.73
2018-12-25T14:41:41.591Z,9.30
2018-12-25T14:44:11.111Z,9.37
2018-12-25T14:46:40.384Z,9.47
2018-12-25T14:49:09.962Z,9.70
2018-12-25T14:51:39.162Z,10.43
2018-12-25T14:54:08.607Z,10.90
2018-12-25T14:56:38.164Z,11.73
2018-12-25T14:59:07.698Z,12.23
2018-12-25T15:01:37.273Z,12.78
2018-12-25T15:04:06.575Z,12.40
2018-12-25T15:06:36.336Z,13.13
2018-12-25T15:09:07.257Z,13.67
2018-12-25T15:11:36.415Z,13.60
2018-12-25T15:14:07.436Z,15.10
2018-12-25T15:16:36.918Z,14.20
2018-12-25T15:19:08.106Z,14.50
2018-12-25T15:21:38.027Z,15.40
2018-12-25T15:24:07.966Z,17.63
2018-12-25T15:26:37.259Z,15.13
2018-12-25T15:29:06.609Z,19.10
2018-12-25T15:31:36.326Z,17.15
2018-12-25T15:34:06.768Z,18.93
2018-12-25T15:36:36.157Z,16.87
2018-12-25T15:39:09.353Z,15.93
2018-12-25T15:41:38.816Z,18.43
2018-12-25T15:44:08.050Z,18.00
2018-12-25T15:46:37.584Z,19.70
2018-12-25T15:49:07.116Z,17.07
2018-12-25T15:51:36.306Z,18.13
2018-12-25T15:54:06.305Z,19.17
2018-12-25T15:56:35.511Z,18.53
2018-12-25T15:59:06.193Z,17.37
2018-12-25T16:01:36.107Z,20.57
2018-12-25T16:04:05.557Z,19.90
2018-12-25T16:06:35.074Z,20.13
2018-12-25T16:09:06.389Z,17.40
2018-12-25T16:11:35.812Z,19.60
2018-12-25T16:14:05.621Z,20.53
2018-12-25T16:16:35.140Z,21.30
2018-12-25T16:19:04.954Z,21.20
2018-12-25T16:21:34.685Z,22.93
2018-12-25T16:24:05.469Z,21.70
2018-12-25T16:26:35.027Z,23.63
2018-12-25T16:29:04.737Z,26.20
2018-12-25T16:31:34.361Z,25.13
2018-12-25T16:34:03.640Z,21.90
2018-12-25T16:36:33.546Z,25.37
2018-12-25T16:39:02.872Z,22.90
2018-12-25T16:41:32.912Z,24.23
2018-12-25T16:44:02.664Z,24.60
2018-12-25T16:46:32.286Z,25.55
2018-12-25T16:49:01.891Z,27.87
2018-12-25T16:51:31.318Z,25.70
2018-12-25T16:54:00.878Z,24.03
2018-12-25T16:56:30.605Z,25.37
2018-12-25T16:58:59.953Z,26.03
2018-12-25T17:01:29.132Z,25.20
2018-12-25T17:03:58.646Z,24.60
2018-12-25T17:06:28.246Z,24.90
2018-12-25T17:08:58.058Z,26.33
2018-12-25T17:11:27.880Z,26.77
2018-12-25T17:13:58.192Z,27.70
2018-12-25T17:16:27.834Z,25.70
2018-12-25T17:18:57.759Z,27.93
2018-12-25T17:21:27.442Z,29.80
2018-12-25T17:24:02.240Z,27.07
2018-12-25T17:26:28.061Z,24.70
2018-12-25T17:28:58.419Z,25.90
2018-12-25T17:31:28.696Z,27.00
2018-12-25T17:33:57.862Z,26.33
2018-12-25T17:36:27.548Z,26.40
2018-12-25T17:38:58.164Z,27.40
2018-12-25T17:41:28.526Z,25.40
2018-12-25T17:43:57.911Z,26.93
2018-12-25T17:46:27.999Z,26.20
2018-12-25T17:48:57.266Z,26.80
2018-12-25T17:51:26.926Z,27.77
2018-12-25T17:53:56.272Z,27.67
2018-12-25T17:56:25.541Z,27.13
2018-12-25T17:58:55.066Z,26.77
2018-12-25T18:01:24.980Z,25.57
2018-12-25T18:03:56.314Z,26.67
2018-12-25T18:06:26.720Z,26.33
2018-12-25T18:08:56.331Z,27.90
2018-12-25T18:11:25.877Z,25.50
2018-12-25T18:13:55.123Z,26.17
2018-12-25T18:16:24.948Z,26.60
2018-12-25T18:18:54.169Z,26.07
2018-12-25T18:21:23.329Z,28.10
2018-12-25T18:23:56.902Z,29.37
2018-12-25T18:26:26.108Z,27.70
2018-12-25T18:28:56.650Z,27.23
2018-12-25T18:31:26.003Z,27.30
2018-12-25T18:33:55.502Z,25.57
2018-12-25T18:36:25.409Z,24.30
2018-12-25T18:38:55.156Z,28.07
2018-12-25T18:41:26.715Z,25.77
2018-12-25T18:43:56.287Z,25.23
2018-12-25T18:46:25.741Z,24.33
2018-12-25T18:48:54.954Z,21.40
2018-12-25T18:51:24.546Z,22.63
2018-12-25T18:53:54.023Z,21.10
2018-12-25T18:56:25.351Z,22.67
2018-12-25T18:58:54.864Z,22.43
2018-12-25T19:01:26.940Z,21.20
2018-12-25T19:03:55.872Z,21.23
2018-12-25T19:06:25.554Z,24.27
2018-12-25T19:08:55.039Z,19.00
2018-12-25T19:11:24.212Z,19.57
2018-12-25T19:13:53.753Z,21.50
2018-12-25T19:16:23.561Z,19.70
2018-12-25T19:18:52.781Z,20.10
2018-12-25T19:21:22.783Z,19.80
2018-12-25T19:23:58.976Z,19.97
2018-12-25T19:26:28.205Z,23.20
2018-12-25T19:28:57.820Z,18.77
2018-12-25T19:31:27.556Z,19.20
2018-12-25T19:33:57.290Z,20.90
2018-12-25T19:36:27.388Z,19.03
2018-12-25T19:38:57.103Z,19.77
2018-12-25T19:41:26.301Z,21.53
2018-12-25T19:43:56.059Z,18.70
2018-12-25T19:46:25.263Z,20.50
2018-12-25T19:48:54.439Z,20.40
2018-12-25T19:51:23.980Z,20.87
2018-12-25T19:53:53.158Z,20.10
2018-12-25T19:56:22.741Z,20.20
2018-12-25T19:58:52.368Z,20.60
2018-12-25T20:01:21.708Z,23.10
2018-12-25T20:04:02.649Z,21.50
2018-12-25T20:07:15.332Z,22.03
2018-12-25T20:10:44.027Z,22.27
2018-12-25T20:14:03.527Z,21.47
2018-12-25T20:17:12.203Z,21.10
2018-12-25T20:20:24.617Z,22.50
2018-12-25T20:23:35.927Z,21.00
2018-12-25T20:26:31.381Z,22.40
2018-12-25T20:29:51.089Z,24.17
2018-12-25T20:32:58.599Z,24.60
2018-12-25T20:36:17.826Z,23.63
2018-12-25T20:39:21.731Z,22.57
2018-12-25T20:42:22.977Z,24.73
2018-12-25T20:45:39.575Z,24.30
2018-12-25T20:49:08.296Z,23.70
2018-12-25T20:52:12.299Z,22.37
2018-12-25T20:55:30.636Z,24.37
2018-12-25T20:58:44.015Z,25.30
2018-12-25T21:02:03.470Z,24.20
2018-12-25T21:05:25.205Z,24.77
2018-12-25T21:08:27.199Z,25.07
2018-12-25T21:11:52.877Z,25.73
2018-12-25T21:14:57.981Z,23.90
2018-12-25T21:18:02.777Z,24.40
2018-12-25T21:21:12.065Z,24.10
2018-12-25T21:24:17.970Z,22.00
2018-12-25T21:27:22.911Z,23.90
2018-12-25T21:29:53.216Z,23.00
2018-12-25T21:32:23.001Z,24.90
2018-12-25T21:34:56.012Z,23.53
2018-12-25T21:37:25.760Z,25.00
2018-12-25T21:39:56.633Z,24.30
2018-12-25T21:42:26.657Z,24.87
2018-12-25T21:44:57.007Z,23.90
2018-12-25T21:47:28.373Z,25.30
2018-12-25T21:49:58.884Z,24.23
2018-12-25T21:52:28.153Z,23.80
2018-12-25T21:54:57.404Z,25.03
2018-12-25T21:57:26.994Z,23.77
2018-12-25T21:59:56.439Z,24.37
2018-12-25T22:02:27.940Z,24.60
2018-12-25T22:04:57.902Z,22.63
2018-12-25T22:07:27.398Z,23.73
2018-12-25T22:09:56.648Z,23.57
2018-12-25T22:12:25.864Z,22.80
2018-12-25T22:14:55.017Z,23.27
2018-12-25T22:17:24.910Z,31.13
2018-12-25T22:19:54.413Z,23.70
2018-12-25T22:22:23.992Z,24.20
2018-12-25T22:24:53.606Z,22.83
2018-12-25T22:27:23.143Z,25.00
2018-12-25T22:29:52.401Z,22.20
2018-12-25T22:32:21.606Z,22.37
2018-12-25T22:34:50.753Z,22.33
2018-12-25T22:37:20.081Z,20.80
2018-12-25T22:39:49.245Z,26.07
2018-12-25T22:42:18.430Z,24.30
2018-12-25T22:44:47.780Z,22.67
2018-12-25T22:47:18.455Z,22.23
2018-12-25T22:49:47.625Z,22.70
2018-12-25T22:52:16.843Z,22.80
2018-12-25T22:54:46.354Z,20.83
2018-12-25T22:57:15.538Z,20.20
2018-12-25T22:59:45.057Z,21.83
2018-12-25T23:02:14.259Z,22.00
2018-12-25T23:04:44.388Z,19.33
2018-12-25T23:07:13.884Z,22.80
2018-12-25T23:09:43.092Z,21.57
2018-12-25T23:12:12.727Z,20.43
2018-12-25T23:14:41.871Z,21.97
2018-12-25T23:17:11.040Z,21.10
2018-12-25T23:19:40.201Z,21.23
2018-12-25T23:22:10.108Z,22.03
2018-12-25T23:24:39.373Z,20.63
2018-12-25T23:27:08.529Z,18.33
2018-12-25T23:29:37.844Z,18.23
2018-12-25T23:32:07.320Z,22.30
2018-12-25T23:34:36.525Z,19.30
2018-12-25T23:37:05.988Z,18.10
2018-12-25T23:39:35.523Z,19.40
2018-12-25T23:42:05.056Z,20.68
2018-12-25T23:44:34.284Z,19.27
2018-12-25T23:47:03.526Z,19.00
2018-12-25T23:49:32.671Z,20.10
2018-12-25T23:52:01.900Z,20.10
2018-12-25T23:54:31.431Z,18.63
2018-12-25T23:57:00.792Z,19.13
2018-12-25T23:59:30.354Z,18.60
